createdAt,value
2019-05-18T13:12:33.097Z,2.47
2019-05-18T13:15:01.499Z,2.47
2019-05-18T13:17:29.899Z,2.50
2019-05-18T13:19:58.310Z,3.03
2019-05-18T13:22:26.717Z,2.63
2019-05-18T13:24:55.111Z,3.17
2019-05-18T13:27:38.322Z,3.70
2019-05-18T13:29:53.871Z,21.37
2019-05-18T13:32:22.272Z,2.87
2019-05-18T13:34:50.678Z,2.80
2019-05-18T13:37:19.084Z,2.87
2019-05-18T13:39:47.497Z,3.37
2019-05-18T13:42:15.991Z,10.03
2019-05-18T13:44:44.401Z,11.90
2019-05-18T13:47:12.851Z,7.25
2019-05-18T13:49:41.270Z,3.47
2019-05-18T13:52:09.681Z,2.90
2019-05-18T13:54:38.383Z,8.38
2019-05-18T13:57:06.786Z,5.63
2019-05-18T13:59:35.192Z,5.90
2019-05-18T14:02:03.708Z,4.80
2019-05-18T14:04:32.152Z,3.62
2019-05-18T14:07:00.614Z,4.03
2019-05-18T14:09:29.003Z,5.67
2019-05-18T14:11:57.424Z,6.80
2019-05-18T14:14:25.903Z,5.43
2019-05-18T14:16:54.655Z,5.57
2019-05-18T14:19:23.076Z,4.97
2019-05-18T14:21:51.467Z,5.60
2019-05-18T14:24:19.880Z,5.30
2019-05-18T14:26:48.279Z,5.20
2019-05-18T14:29:16.690Z,6.67
2019-05-18T14:31:45.135Z,8.97
2019-05-18T14:34:13.543Z,7.13
2019-05-18T14:36:41.940Z,7.23
2019-05-18T14:39:10.364Z,6.33
2019-05-18T14:41:41.945Z,7.77
2019-05-18T14:44:08.964Z,7.03
2019-05-18T14:46:37.390Z,7.03
2019-05-18T14:49:05.783Z,7.27
2019-05-18T14:51:34.213Z,7.77
2019-05-18T14:54:02.620Z,8.20
2019-05-18T14:56:31.027Z,8.07
2019-05-18T14:58:59.438Z,7.67
2019-05-18T15:01:27.847Z,8.10
2019-05-18T15:03:56.250Z,8.17
2019-05-18T15:06:24.661Z,7.70
2019-05-18T15:08:53.088Z,8.93
2019-05-18T15:11:21.479Z,8.07
2019-05-18T15:13:49.878Z,8.13
2019-05-18T15:16:18.287Z,8.37
2019-05-18T15:18:46.687Z,8.17
2019-05-18T15:21:15.110Z,8.37
2019-05-18T15:23:43.515Z,7.93
2019-05-18T15:26:11.922Z,7.30
2019-05-18T15:28:40.322Z,6.30
2019-05-18T15:31:08.806Z,10.23
2019-05-18T15:33:37.215Z,9.17
2019-05-18T15:36:05.687Z,5.20
2019-05-18T15:38:34.097Z,5.57
2019-05-18T15:41:02.514Z,6.73
2019-05-18T15:43:30.911Z,7.83
2019-05-18T15:45:59.371Z,5.00
2019-05-18T15:48:27.840Z,42.20
2019-05-18T15:50:59.136Z,8.80
2019-05-18T15:53:26.673Z,9.57
2019-05-18T15:56:05.259Z,12.67
2019-05-18T15:58:25.288Z,11.80
2019-05-18T16:00:53.717Z,11.93
2019-05-18T16:03:22.430Z,8.97
2019-05-18T16:05:50.823Z,10.17
2019-05-18T16:08:19.234Z,7.90
2019-05-18T16:10:47.644Z,10.73
2019-05-18T16:13:16.052Z,7.73
2019-05-18T16:15:44.468Z,7.93
2019-05-18T16:18:12.874Z,6.70
2019-05-18T16:20:41.278Z,6.07
2019-05-18T16:23:10.007Z,7.77
2019-05-18T16:25:38.646Z,7.80
2019-05-18T16:28:07.120Z,8.23
2019-05-18T16:30:35.608Z,6.83
2019-05-18T16:33:04.076Z,6.40
2019-05-18T16:35:32.480Z,5.60
2019-05-18T16:38:00.894Z,5.90
2019-05-18T16:40:29.323Z,11.63
2019-05-18T16:42:57.735Z,5.30
2019-05-18T16:45:26.167Z,8.07
2019-05-18T16:47:54.567Z,6.47
2019-05-18T16:50:23.675Z,4.20
2019-05-18T16:52:52.079Z,4.40
2019-05-18T16:55:20.800Z,10.47
2019-05-18T16:57:49.213Z,8.33
2019-05-18T17:00:18.064Z,5.90
2019-05-18T17:02:46.459Z,6.40
2019-05-18T17:05:15.224Z,4.87
2019-05-18T17:07:43.633Z,7.00
2019-05-18T17:10:12.899Z,7.47
2019-05-18T17:12:41.363Z,5.00
2019-05-18T17:15:10.210Z,4.30
2019-05-18T17:17:39.545Z,4.47
2019-05-18T17:20:08.701Z,4.27
2019-05-18T17:22:37.127Z,9.00
2019-05-18T17:25:06.175Z,15.43
2019-05-18T17:27:34.759Z,27.77
2019-05-18T17:30:04.129Z,13.33
2019-05-18T17:32:32.702Z,35.47
2019-05-18T17:35:01.132Z,22.63
2019-05-18T17:37:29.662Z,23.00
2019-05-18T17:39:58.206Z,9.57
2019-05-18T17:42:26.612Z,7.97
2019-05-18T17:44:55.015Z,3.73
2019-05-18T17:47:23.430Z,3.40
2019-05-18T17:49:51.887Z,3.80
2019-05-18T17:52:20.295Z,3.60
2019-05-18T17:54:48.701Z,4.53
2019-05-18T17:57:17.132Z,4.17
2019-05-18T17:59:45.598Z,3.63
2019-05-18T18:02:14.076Z,4.30
2019-05-18T18:04:42.500Z,4.20
2019-05-18T18:07:10.903Z,4.63
2019-05-18T18:09:39.339Z,4.63
2019-05-18T18:12:07.923Z,4.67
2019-05-18T18:14:37.133Z,4.40
2019-05-18T18:17:05.535Z,4.17
2019-05-18T18:19:33.943Z,4.30
2019-05-18T18:22:02.346Z,4.23
2019-05-18T18:24:30.871Z,4.03
2019-05-18T18:26:59.276Z,4.60
2019-05-18T18:29:27.674Z,3.83
2019-05-18T18:31:56.395Z,4.03
2019-05-18T18:34:24.813Z,5.90
2019-05-18T18:36:53.301Z,4.03
2019-05-18T18:39:21.707Z,6.17
2019-05-18T18:41:50.099Z,6.77
2019-05-18T18:44:18.499Z,6.20
2019-05-18T18:46:46.991Z,5.67
2019-05-18T18:49:15.397Z,8.27
2019-05-18T18:51:43.798Z,7.07
2019-05-18T18:54:12.841Z,6.93
2019-05-18T18:56:41.385Z,6.33
2019-05-18T18:59:09.782Z,5.47
2019-05-18T19:01:38.241Z,7.10
2019-05-18T19:04:06.374Z,8.05
2019-05-18T19:06:34.773Z,5.70
2019-05-18T19:09:04.294Z,5.63
2019-05-18T19:11:32.361Z,7.13
2019-05-18T19:14:00.832Z,7.87
2019-05-18T19:16:29.243Z,7.87
2019-05-18T19:18:57.654Z,5.23
2019-05-18T19:21:26.061Z,7.43
2019-05-18T19:23:54.486Z,5.57
2019-05-18T19:26:23.264Z,5.23
2019-05-18T19:28:51.779Z,5.20
2019-05-18T19:31:20.219Z,5.40
2019-05-18T19:33:48.620Z,5.90
2019-05-18T19:36:17.024Z,5.13
2019-05-18T19:38:45.440Z,5.77
2019-05-18T19:41:15.914Z,8.60
2019-05-18T19:43:44.319Z,8.50
2019-05-18T19:46:12.950Z,7.40
2019-05-18T19:48:41.353Z,6.03
2019-05-18T19:51:09.961Z,6.77
2019-05-18T19:53:38.358Z,8.27
2019-05-18T19:56:06.821Z,7.00
2019-05-18T19:58:35.427Z,6.67
2019-05-18T20:01:03.832Z,7.53
2019-05-18T20:03:32.243Z,7.93
2019-05-18T20:06:00.648Z,8.07
2019-05-18T20:08:29.059Z,6.53
2019-05-18T20:10:57.587Z,6.87
2019-05-18T20:13:25.707Z,6.80
2019-05-18T20:15:54.115Z,8.20
2019-05-18T20:18:22.520Z,8.00
2019-05-18T20:20:51.228Z,9.07
2019-05-18T20:23:19.632Z,11.87
2019-05-18T20:25:48.034Z,11.30
2019-05-18T20:28:23.719Z,9.87
2019-05-18T20:30:46.583Z,9.17
2019-05-18T20:33:15.067Z,10.40
2019-05-18T20:35:43.707Z,8.17
2019-05-18T20:38:12.200Z,9.63
2019-05-18T20:40:40.603Z,7.83
2019-05-18T20:43:09.011Z,8.37
2019-05-18T20:45:37.923Z,8.63
2019-05-18T20:48:06.328Z,9.20
2019-05-18T20:50:34.738Z,9.33
2019-05-18T20:53:02.818Z,9.90
2019-05-18T20:55:31.467Z,9.07
2019-05-18T20:57:59.901Z,9.07
2019-05-18T21:00:28.641Z,9.27
2019-05-18T21:02:57.034Z,10.10
2019-05-18T21:05:25.447Z,11.03
2019-05-18T21:07:53.903Z,9.80
2019-05-18T21:10:22.307Z,10.07
2019-05-18T21:12:50.713Z,9.83
2019-05-18T21:15:21.858Z,10.87
2019-05-18T21:17:50.282Z,10.93
2019-05-18T21:20:18.662Z,11.47
2019-05-18T21:22:47.098Z,12.87
2019-05-18T21:25:15.577Z,12.77
2019-05-18T21:27:44.006Z,11.87
2019-05-18T21:30:12.680Z,12.27
2019-05-18T21:32:41.087Z,11.63
2019-05-18T21:35:09.635Z,11.17
2019-05-18T21:37:37.719Z,12.10
2019-05-18T21:40:06.475Z,12.20
2019-05-18T21:42:34.882Z,12.73
2019-05-18T21:45:04.335Z,12.80
2019-05-18T21:47:32.743Z,12.60
2019-05-18T21:50:01.578Z,13.53
2019-05-18T21:52:30.227Z,13.23
2019-05-18T21:54:58.303Z,14.80
2019-05-18T21:57:26.386Z,13.70
2019-05-18T21:59:54.879Z,14.03
2019-05-18T22:02:23.291Z,14.20
2019-05-18T22:04:51.694Z,14.90
2019-05-18T22:07:20.103Z,14.43
2019-05-18T22:09:48.527Z,15.73
2019-05-18T22:12:16.943Z,15.47
2019-05-18T22:14:45.355Z,15.23
2019-05-18T22:17:13.772Z,14.63
2019-05-18T22:19:42.183Z,15.20
2019-05-18T22:22:10.639Z,15.30
2019-05-18T22:24:39.047Z,15.47
2019-05-18T22:27:07.455Z,17.10
2019-05-18T22:29:35.870Z,16.80
2019-05-18T22:32:04.279Z,16.47
2019-05-18T22:34:32.684Z,17.07
2019-05-18T22:37:01.155Z,17.37
2019-05-18T22:39:29.775Z,16.30
2019-05-18T22:41:58.179Z,17.07
2019-05-18T22:44:26.898Z,16.67
2019-05-18T22:46:54.971Z,16.73
2019-05-18T22:49:23.380Z,17.13
2019-05-18T22:51:51.794Z,17.07
2019-05-18T22:54:20.206Z,17.60
2019-05-18T22:56:48.602Z,17.03
2019-05-18T22:59:17.100Z,18.00
2019-05-18T23:01:45.779Z,16.43
2019-05-18T23:04:14.199Z,16.70
2019-05-18T23:06:42.283Z,17.53
2019-05-18T23:09:10.686Z,17.73
2019-05-18T23:11:39.090Z,16.60
2019-05-18T23:14:07.744Z,17.50
2019-05-18T23:16:36.151Z,16.87
2019-05-18T23:19:04.695Z,19.17
2019-05-18T23:21:33.111Z,18.00
2019-05-18T23:24:01.530Z,18.07
2019-05-18T23:26:29.934Z,18.67
2019-05-18T23:28:58.339Z,18.13
2019-05-18T23:31:26.747Z,17.60
2019-05-18T23:33:55.168Z,18.60
2019-05-18T23:36:23.574Z,18.40
2019-05-18T23:38:52.000Z,17.53
2019-05-18T23:41:20.493Z,17.97
2019-05-18T23:43:48.963Z,17.13
2019-05-18T23:46:17.370Z,17.23
2019-05-18T23:48:45.782Z,17.40
2019-05-18T23:51:14.199Z,19.50
2019-05-18T23:53:42.603Z,18.23
2019-05-18T23:56:11.025Z,19.03
2019-05-18T23:58:39.427Z,17.60
